createdAt,value
2023-01-19T00:04:57.276Z,3.78
2023-01-19T00:10:00.202Z,4.50
2023-01-19T00:15:02.929Z,7.35
2023-01-19T00:20:06.298Z,6.07
2023-01-19T00:25:09.494Z,5.22
2023-01-19T00:30:13.764Z,7.20
2023-01-19T00:35:16.738Z,9.50
2023-01-19T00:40:19.697Z,9.50
2023-01-19T00:45:24.918Z,6.70
2023-01-19T00:50:30.421Z,7.88
2023-01-19T00:55:36.263Z,9.00
2023-01-19T01:00:39.121Z,10.00
2023-01-19T01:05:42.799Z,8.07
2023-01-19T01:10:45.493Z,9.07
2023-01-19T01:15:51.426Z,9.65
2023-01-19T01:21:00.779Z,10.35
2023-01-19T01:26:03.760Z,9.85
2023-01-19T01:31:06.460Z,12.75
2023-01-19T01:36:11.968Z,14.67
2023-01-19T01:41:14.878Z,10.75
2023-01-19T01:46:18.460Z,10.88
2023-01-19T01:51:58.374Z,10.15
2023-01-19T01:57:06.546Z,9.93
2023-01-19T02:02:38.457Z,9.83
2023-01-19T02:08:22.072Z,10.95
2023-01-19T02:13:25.847Z,10.23
2023-01-19T02:18:30.999Z,10.63
2023-01-19T02:23:50.363Z,11.48
2023-01-19T02:29:08.911Z,9.83
2023-01-19T02:34:15.672Z,11.68
2023-01-19T02:39:22.765Z,10.95
2023-01-19T02:44:26.927Z,11.27
2023-01-19T02:49:30.481Z,11.30
2023-01-19T02:54:52.703Z,12.80
2023-01-19T03:00:34.168Z,11.75
2023-01-19T03:05:58.568Z,9.85
2023-01-19T03:11:05.452Z,10.55
2023-01-19T03:16:14.115Z,12.00
2023-01-19T03:21:19.888Z,9.03
2023-01-19T03:26:29.384Z,11.43
2023-01-19T03:31:33.680Z,11.50
2023-01-19T03:36:44.394Z,10.50
2023-01-19T03:41:50.262Z,10.40
2023-01-19T03:46:53.292Z,10.70
2023-01-19T03:51:57.377Z,10.02
2023-01-19T03:57:00.310Z,10.27
2023-01-19T04:02:03.170Z,8.52
2023-01-19T04:07:06.121Z,9.15
2023-01-19T04:12:09.211Z,8.50
2023-01-19T04:17:12.331Z,13.27
2023-01-19T04:22:15.105Z,9.52
2023-01-19T04:27:18.463Z,11.25
2023-01-19T04:32:21.194Z,12.93
2023-01-19T04:37:24.124Z,7.80
2023-01-19T04:42:27.886Z,8.65
2023-01-19T04:47:30.596Z,9.85
2023-01-19T04:52:37.175Z,8.93
2023-01-19T04:57:39.991Z,7.55
2023-01-19T05:02:45.751Z,9.23
2023-01-19T05:07:48.939Z,10.05
2023-01-19T05:12:51.749Z,7.38
2023-01-19T05:17:54.561Z,4.63
2023-01-19T05:22:57.345Z,5.13
2023-01-19T05:28:00.208Z,8.23
2023-01-19T05:33:03.316Z,9.05
2023-01-19T05:38:06.270Z,8.25
2023-01-19T05:43:09.088Z,8.38
2023-01-19T05:48:11.953Z,10.60
2023-01-19T05:53:14.807Z,10.53
2023-01-19T05:58:17.717Z,8.75
2023-01-19T06:03:20.569Z,8.02
2023-01-19T06:08:23.619Z,8.40
2023-01-19T06:13:26.340Z,9.50
2023-01-19T06:18:29.923Z,6.53
2023-01-19T06:23:34.422Z,8.32
2023-01-19T06:28:37.326Z,9.85
2023-01-19T06:33:40.190Z,9.32
2023-01-19T06:38:42.897Z,9.60
2023-01-19T06:43:45.723Z,9.73
2023-01-19T06:48:48.589Z,9.35
2023-01-19T06:53:51.319Z,9.10
2023-01-19T06:58:55.513Z,8.05
2023-01-19T07:03:58.509Z,9.10
2023-01-19T07:09:04.967Z,5.80
2023-01-19T07:14:07.736Z,5.05
2023-01-19T07:19:11.232Z,6.88
2023-01-19T07:24:14.222Z,9.70
2023-01-19T07:29:17.049Z,14.88
2023-01-19T07:34:20.166Z,14.60
2023-01-19T07:39:22.887Z,14.85
2023-01-19T07:44:25.677Z,14.30
2023-01-19T07:49:28.447Z,11.18
2023-01-19T07:54:31.195Z,10.48
2023-01-19T07:59:34.042Z,8.37
2023-01-19T08:04:36.818Z,8.45
2023-01-19T08:09:39.857Z,10.50
2023-01-19T08:14:42.556Z,11.50
2023-01-19T08:19:45.405Z,12.13
2023-01-19T08:24:50.305Z,10.20
2023-01-19T08:29:54.653Z,10.73
2023-01-19T08:34:57.550Z,12.70
2023-01-19T08:40:00.256Z,11.20
2023-01-19T08:45:03.007Z,11.68
2023-01-19T08:50:06.261Z,14.27
2023-01-19T08:55:11.470Z,12.60
2023-01-19T09:00:14.975Z,15.15
2023-01-19T09:05:18.383Z,14.88
2023-01-19T09:10:21.303Z,15.40
2023-01-19T09:15:24.184Z,16.03
2023-01-19T09:20:27.081Z,15.70
2023-01-19T09:25:30.366Z,12.50
2023-01-19T09:30:33.539Z,13.10
2023-01-19T09:35:36.602Z,14.50
2023-01-19T09:40:44.911Z,15.93
2023-01-19T09:46:15.622Z,15.73
2023-01-19T09:51:26.664Z,14.48
2023-01-19T09:56:31.392Z,16.27
2023-01-19T10:01:41.056Z,15.63
2023-01-19T10:06:46.370Z,14.20
2023-01-19T10:11:59.791Z,12.02
2023-01-19T10:17:34.625Z,13.45
2023-01-19T10:22:37.944Z,12.85
2023-01-19T10:27:41.857Z,13.27
2023-01-19T10:32:45.925Z,14.20
2023-01-19T10:37:49.700Z,13.20
2023-01-19T10:42:52.559Z,13.02
2023-01-19T10:47:58.990Z,14.35
2023-01-19T10:53:04.871Z,13.23
2023-01-19T10:58:29.289Z,13.33
2023-01-19T11:03:32.826Z,14.80
2023-01-19T11:08:35.521Z,15.13
2023-01-19T11:13:41.580Z,15.27
2023-01-19T11:18:46.012Z,13.82
2023-01-19T11:23:55.031Z,14.37
2023-01-19T11:29:00.294Z,14.75
2023-01-19T11:34:05.968Z,18.35
2023-01-19T11:39:20.949Z,16.63
2023-01-19T11:44:47.265Z,15.77
2023-01-19T11:50:01.687Z,16.07
2023-01-19T11:55:23.034Z,14.43
2023-01-19T12:00:34.456Z,14.82
2023-01-19T12:05:41.601Z,18.23
2023-01-19T12:10:47.617Z,18.00
2023-01-19T12:15:59.624Z,17.00
2023-01-19T12:21:04.224Z,15.65
2023-01-19T12:26:16.529Z,13.75
2023-01-19T12:31:23.826Z,14.30
2023-01-19T12:36:33.431Z,12.73
2023-01-19T12:41:38.441Z,15.33
2023-01-19T12:46:49.518Z,16.85
2023-01-19T12:51:55.433Z,19.05
2023-01-19T12:57:05.367Z,18.63
2023-01-19T13:02:27.461Z,19.30
2023-01-19T13:07:30.303Z,18.93
2023-01-19T13:12:33.197Z,23.27
2023-01-19T13:17:53.140Z,23.40
2023-01-19T13:23:23.135Z,26.52
2023-01-19T13:29:03.093Z,24.25
2023-01-19T13:34:13.462Z,25.77
2023-01-19T13:39:34.738Z,26.10
2023-01-19T13:45:02.516Z,24.83
2023-01-19T13:50:06.037Z,22.13
2023-01-19T13:55:14.749Z,21.60
2023-01-19T14:00:25.086Z,25.33
2023-01-19T14:05:30.936Z,22.50
2023-01-19T14:10:39.241Z,21.80
2023-01-19T14:15:42.471Z,22.85
2023-01-19T14:21:09.382Z,24.58
2023-01-19T14:26:40.347Z,23.07
2023-01-19T14:31:49.834Z,21.23
2023-01-19T14:36:52.829Z,23.27
2023-01-19T14:41:58.918Z,23.95
2023-01-19T14:47:02.405Z,25.13
2023-01-19T14:52:22.547Z,26.83
2023-01-19T14:57:25.672Z,25.15
2023-01-19T15:02:28.687Z,26.75
2023-01-19T15:07:31.799Z,28.55
2023-01-19T15:12:34.698Z,28.58
2023-01-19T15:17:37.611Z,25.33
2023-01-19T15:22:40.561Z,24.25
2023-01-19T15:27:44.607Z,22.08
2023-01-19T15:32:47.948Z,22.20
2023-01-19T15:37:51.405Z,22.15
2023-01-19T15:42:54.177Z,23.10
2023-01-19T15:47:56.871Z,24.00
2023-01-19T15:52:59.959Z,22.42
2023-01-19T15:58:03.013Z,21.55
2023-01-19T16:03:06.245Z,20.73
2023-01-19T16:08:09.477Z,20.23
2023-01-19T16:13:14.708Z,18.80
2023-01-19T16:18:17.417Z,18.90
2023-01-19T16:23:20.383Z,19.20
2023-01-19T16:28:23.823Z,22.27
2023-01-19T16:33:26.792Z,22.37
2023-01-19T16:38:29.711Z,21.55
2023-01-19T16:43:32.444Z,20.08
2023-01-19T16:48:35.197Z,18.70
2023-01-19T16:53:37.996Z,17.10
2023-01-19T16:58:41.886Z,17.13
2023-01-19T17:03:44.770Z,19.45
2023-01-19T17:08:48.082Z,19.70
2023-01-19T17:13:54.848Z,20.20
2023-01-19T17:18:58.849Z,15.65
2023-01-19T17:24:01.664Z,16.80
2023-01-19T17:29:06.737Z,16.00
2023-01-19T17:34:10.187Z,15.90
2023-01-19T17:39:15.155Z,14.90
2023-01-19T17:44:18.612Z,16.33
2023-01-19T17:49:22.048Z,14.43
2023-01-19T17:54:24.957Z,14.77
2023-01-19T17:59:27.897Z,13.80
2023-01-19T18:04:32.204Z,15.27
2023-01-19T18:09:35.092Z,14.18
2023-01-19T18:14:38.567Z,15.37
2023-01-19T18:19:41.484Z,13.55
2023-01-19T18:24:45.903Z,14.73
2023-01-19T18:29:49.066Z,14.18
2023-01-19T18:34:54.250Z,14.73
2023-01-19T18:39:59.941Z,12.90
2023-01-19T18:45:02.759Z,15.15
2023-01-19T18:50:05.744Z,14.43
2023-01-19T18:55:08.775Z,13.68
2023-01-19T19:00:12.558Z,13.52
2023-01-19T19:05:15.701Z,13.13
2023-01-19T19:10:18.530Z,11.60
2023-01-19T19:15:21.884Z,11.73
2023-01-19T19:20:24.632Z,13.57
2023-01-19T19:25:27.338Z,9.82
2023-01-19T19:30:30.181Z,11.37
2023-01-19T19:35:33.022Z,12.52
2023-01-19T19:40:35.833Z,14.40
2023-01-19T19:45:38.935Z,14.13
2023-01-19T19:50:41.688Z,11.88
2023-01-19T19:55:44.527Z,11.60
2023-01-19T20:00:47.284Z,9.98
2023-01-19T20:05:50.222Z,11.70
2023-01-19T20:10:52.924Z,10.50
2023-01-19T20:15:56.166Z,7.22
2023-01-19T20:21:10.293Z,9.33
2023-01-19T20:26:15.041Z,4.97
2023-01-19T20:31:24.085Z,9.93
2023-01-19T20:36:27.083Z,6.65
2023-01-19T20:41:29.887Z,11.48
2023-01-19T20:46:32.794Z,9.80
2023-01-19T20:51:37.608Z,5.80
2023-01-19T20:56:41.642Z,10.25
2023-01-19T21:01:48.845Z,6.55
2023-01-19T21:06:52.414Z,9.70
2023-01-19T21:11:57.302Z,11.10
2023-01-19T21:17:00.404Z,10.45
2023-01-19T21:22:03.336Z,11.07
2023-01-19T21:27:06.286Z,12.13
2023-01-19T21:32:09.224Z,12.98
2023-01-19T21:37:12.026Z,12.47
2023-01-19T21:42:14.841Z,12.52
2023-01-19T21:47:18.011Z,10.00
2023-01-19T21:52:21.164Z,9.60
2023-01-19T21:57:23.989Z,8.45
2023-01-19T22:02:38.333Z,10.73
2023-01-19T22:07:41.895Z,12.63
2023-01-19T22:12:44.802Z,12.30
2023-01-19T22:17:47.716Z,12.05
2023-01-19T22:22:50.895Z,12.35
2023-01-19T22:27:56.768Z,11.53
2023-01-19T22:32:59.628Z,9.43
2023-01-19T22:38:02.538Z,10.68
2023-01-19T22:43:05.310Z,9.02
2023-01-19T22:48:08.006Z,9.40
